Date,TemperatureHighF,TemperatureAvgF,TemperatureLowF,DewpointHighF,DewpointAvgF,DewpointLowF,HumidityHigh,HumidityAvg,HumidityLow,PressureMaxIn,PressureMinIn,WindSpeedMaxMPH,WindSpeedAvgMPH,GustSpeedMaxMPH,PrecipitationSumIn
2013-7-1,75.8,67.5,62.0,67.8,64.1,60.9,98,89,69,29.89,29.75,12,1,12,0.36
2013-7-2,77.4,68.9,64.2,70.4,65.8,62.0,100,91,71,30.04,29.89,11,0,11,0.27
2013-7-3,69.6,67.5,66.0,69.3,67.1,64.0,100,99,93,30.14,30.02,13,1,13,0.22
2013-7-4,70.4,66.7,65.0,70.4,66.7,65.0,100,100,100,30.14,30.05,15,2,15,1.07
2013-7-5,69.6,67.9,66.3,69.6,67.9,66.3,100,100,100,30.17,30.07,14,1,14,0.34
2013-7-6,68.6,67.1,65.5,68.6,67.1,65.5,100,100,100,30.13,30.09,12,1,12,2.03
2013-7-7,73.2,69.0,65.6,72.8,69.0,65.6,100,100,98,30.15,30.08,9,0,9,2.03
2013-7-8,80.9,72.6,67.3,73.8,69.8,66.8,100,91,70,30.19,30.08,7,1,10,0.00
2013-7-9,79.9,73.8,69.6,76.0,72.2,69.0,100,95,82,30.15,30.04,9,0,9,0.17
2013-7-10,84.0,74.5,66.8,76.0,71.2,64.7,99,90,68,30.07,29.91,13,1,13,0.42
2013-7-11,79.0,72.0,66.9,73.7,69.8,66.6,100,93,77,29.98,29.86,13,1,13,0.01
2013-7-12,79.8,72.6,66.8,69.9,65.0,59.8,93,78,56,29.97,29.88,9,0,9,0.00
2013-7-13,79.8,70.4,64.5,69.6,64.6,59.0,93,82,68,30.05,29.92,14,1,14,0.00
2013-7-14,78.5,72.2,68.1,73.6,69.0,66.5,99,90,75,30.18,30.03,14,2,14,0.12
2013-7-15,81.1,74.5,68.8,70.5,67.9,65.2,93,80,59,30.27,30.18,12,1,12,0.00
2013-7-16,84.0,77.0,70.1,73.0,69.6,68.2,95,79,61,30.30,30.21,11,0,11,0.00
2013-7-17,87.6,79.0,71.3,74.0,69.9,64.7,92,74,55,30.26,30.13,12,1,12,0.00
2013-7-18,83.2,76.5,69.8,73.3,69.2,66.2,91,79,60,30.19,30.03,9,1,9,0.00
2013-7-19,87.2,78.7,71.6,73.9,70.0,64.7,96,76,49,30.08,29.94,8,0,8,0.00
2013-7-20,87.0,78.1,70.9,72.9,69.4,65.7,92,76,52,30.00,29.88,7,0,7,0.00
2013-7-21,82.0,73.7,70.1,73.5,70.3,67.7,97,90,70,29.99,29.92,11,0,11,0.12
2013-7-22,80.5,72.2,66.3,71.3,68.2,65.7,99,88,68,29.96,29.84,13,0,13,0.00
2013-7-23,76.8,72.6,68.4,73.5,69.9,66.3,98,91,80,29.91,29.79,10,0,10,0.76
2013-7-24,79.4,73.3,68.6,72.2,69.0,63.1,98,87,72,29.88,29.80,12,0,12,0.00
2013-7-25,81.4,71.6,62.7,67.4,63.4,59.6,91,76,55,30.03,29.87,11,1,11,0.00
2013-7-26,82.2,72.6,64.7,70.1,63.1,58.3,82,73,54,30.06,29.96,11,1,11,0.00
2013-7-27,77.7,71.7,67.8,72.1,66.7,62.9,97,84,66,29.97,29.86,10,0,10,0.55
2013-7-28,79.0,70.0,64.2,67.8,63.2,56.2,96,80,57,30.06,29.90,11,0,11,0.00
2013-7-29,76.0,67.4,60.4,64.0,56.5,50.4,77,69,52,30.19,30.05,10,0,10,0.00
2013-7-30,78.5,70.7,64.7,67.5,61.6,56.7,92,73,59,30.22,30.10,6,0,9,0.01
2013-7-31,71.8,68.1,64.7,71.5,67.1,63.8,100,97,86,30.12,29.96,11,0,11,0.64